sensor_id;sensor_type;location;lat;lon;timestamp;P1;durP1;ratioP1;P2;durP2;ratioP2
56043;SDS011;41912;51.022;3.664;2022-07-06T00:01:41;4.88;;;2.33;;
56043;SDS011;41912;51.022;3.664;2022-07-06T00:04:07;3.40;;;2.22;;
56043;SDS011;41912;51.022;3.664;2022-07-06T00:06:33;5.75;;;2.63;;
56043;SDS011;41912;51.022;3.664;2022-07-06T00:08:59;3.40;;;2.53;;
56043;SDS011;41912;51.022;3.664;2022-07-06T00:11:24;7.38;;;2.78;;
56043;SDS011;41912;51.022;3.664;2022-07-06T00:13:51;6.80;;;2.70;;
56043;SDS011;41912;51.022;3.664;2022-07-06T00:16:16;8.73;;;2.55;;
56043;SDS011;41912;51.022;3.664;2022-07-06T00:18:43;5.53;;;2.90;;
56043;SDS011;41912;51.022;3.664;2022-07-06T00:21:09;5.03;;;2.80;;
56043;SDS011;41912;51.022;3.664;2022-07-06T00:23:35;3.95;;;2.60;;
56043;SDS011;41912;51.022;3.664;2022-07-06T00:26:00;5.53;;;3.10;;
56043;SDS011;41912;51.022;3.664;2022-07-06T00:28:26;5.70;;;3.15;;
56043;SDS011;41912;51.022;3.664;2022-07-06T00:30:52;5.60;;;3.05;;
56043;SDS011;41912;51.022;3.664;2022-07-06T00:33:18;5.28;;;2.97;;
56043;SDS011;41912;51.022;3.664;2022-07-06T00:35:44;5.18;;;3.05;;
56043;SDS011;41912;51.022;3.664;2022-07-06T00:38:09;4.65;;;2.60;;
56043;SDS011;41912;51.022;3.664;2022-07-06T00:40:35;4.70;;;2.40;;
56043;SDS011;41912;51.022;3.664;2022-07-06T00:43:00;8.25;;;2.60;;
56043;SDS011;41912;51.022;3.664;2022-07-06T00:45:27;6.80;;;2.42;;
56043;SDS011;41912;51.022;3.664;2022-07-06T00:47:53;5.80;;;2.53;;
56043;SDS011;41912;51.022;3.664;2022-07-06T00:50:19;4.43;;;2.65;;
56043;SDS011;41912;51.022;3.664;2022-07-06T00:52:59;7.03;;;2.67;;
56043;SDS011;41912;51.022;3.664;2022-07-06T00:55:27;6.82;;;2.80;;
56043;SDS011;41912;51.022;3.664;2022-07-06T00:57:54;8.70;;;3.05;;
56043;SDS011;41912;51.022;3.664;2022-07-06T01:00:22;7.15;;;2.50;;
56043;SDS011;41912;51.022;3.664;2022-07-06T01:02:49;7.47;;;3.22;;
56043;SDS011;41912;51.022;3.664;2022-07-06T01:05:15;5.45;;;2.90;;
56043;SDS011;41912;51.022;3.664;2022-07-06T01:07:42;6.18;;;2.53;;
56043;SDS011;41912;51.022;3.664;2022-07-06T01:10:10;5.53;;;2.58;;
56043;SDS011;41912;51.022;3.664;2022-07-06T01:12:37;9.27;;;4.00;;
56043;SDS011;41912;51.022;3.664;2022-07-06T01:15:04;11.90;;;3.00;;
56043;SDS011;41912;51.022;3.664;2022-07-06T01:17:35;8.75;;;2.90;;
56043;SDS011;41912;51.022;3.664;2022-07-06T01:20:34;10.15;;;3.03;;
56043;SDS011;41912;51.022;3.664;2022-07-06T01:22:54;11.35;;;2.92;;
56043;SDS011;41912;51.022;3.664;2022-07-06T01:25:21;8.50;;;2.95;;
56043;SDS011;41912;51.022;3.664;2022-07-06T01:27:47;5.90;;;3.35;;
56043;SDS011;41912;51.022;3.664;2022-07-06T01:30:15;8.98;;;2.95;;
56043;SDS011;41912;51.022;3.664;2022-07-06T01:32:42;9.30;;;3.22;;
56043;SDS011;41912;51.022;3.664;2022-07-06T01:35:09;8.95;;;3.05;;
56043;SDS011;41912;51.022;3.664;2022-07-06T01:37:37;13.45;;;3.13;;
56043;SDS011;41912;51.022;3.664;2022-07-06T01:40:04;7.47;;;2.70;;
56043;SDS011;41912;51.022;3.664;2022-07-06T01:42:31;9.15;;;3.17;;
56043;SDS011;41912;51.022;3.664;2022-07-06T01:44:57;6.80;;;3.30;;
56043;SDS011;41912;51.022;3.664;2022-07-06T01:47:23;7.72;;;3.33;;
56043;SDS011;41912;51.022;3.664;2022-07-06T01:49:48;8.37;;;3.27;;
56043;SDS011;41912;51.022;3.664;2022-07-06T01:52:14;8.60;;;3.63;;
56043;SDS011;41912;51.022;3.664;2022-07-06T01:54:40;8.07;;;3.40;;
56043;SDS011;41912;51.022;3.664;2022-07-06T01:57:06;5.63;;;2.75;;
56043;SDS011;41912;51.022;3.664;2022-07-06T01:59:32;4.75;;;3.25;;
56043;SDS011;41912;51.022;3.664;2022-07-06T02:01:57;5.45;;;2.88;;
56043;SDS011;41912;51.022;3.664;2022-07-06T02:04:23;6.20;;;3.15;;
56043;SDS011;41912;51.022;3.664;2022-07-06T02:06:48;5.57;;;3.10;;
56043;SDS011;41912;51.022;3.664;2022-07-06T02:09:14;5.60;;;2.70;;
56043;SDS011;41912;51.022;3.664;2022-07-06T02:11:41;6.25;;;3.28;;
56043;SDS011;41912;51.022;3.664;2022-07-06T02:14:07;7.85;;;3.22;;
56043;SDS011;41912;51.022;3.664;2022-07-06T02:16:32;3.78;;;2.90;;
56043;SDS011;41912;51.022;3.664;2022-07-06T02:18:58;5.65;;;3.28;;
56043;SDS011;41912;51.022;3.664;2022-07-06T02:21:24;4.97;;;3.30;;
56043;SDS011;41912;51.022;3.664;2022-07-06T02:23:49;6.75;;;3.55;;
56043;SDS011;41912;51.022;3.664;2022-07-06T02:26:15;5.35;;;3.30;;
56043;SDS011;41912;51.022;3.664;2022-07-06T02:28:41;6.60;;;3.25;;
56043;SDS011;41912;51.022;3.664;2022-07-06T02:31:06;8.38;;;3.42;;
56043;SDS011;41912;51.022;3.664;2022-07-06T02:33:32;7.32;;;3.60;;
56043;SDS011;41912;51.022;3.664;2022-07-06T02:35:58;8.95;;;3.50;;
56043;SDS011;41912;51.022;3.664;2022-07-06T02:38:23;8.07;;;3.53;;
56043;SDS011;41912;51.022;3.664;2022-07-06T02:40:49;9.15;;;3.45;;
56043;SDS011;41912;51.022;3.664;2022-07-06T02:43:15;5.88;;;3.35;;
56043;SDS011;41912;51.022;3.664;2022-07-06T02:45:40;6.25;;;3.00;;
56043;SDS011;41912;51.022;3.664;2022-07-06T02:48:06;5.75;;;3.22;;
56043;SDS011;41912;51.022;3.664;2022-07-06T02:50:32;5.10;;;2.85;;
56043;SDS011;41912;51.022;3.664;2022-07-06T02:52:57;5.00;;;3.03;;
56043;SDS011;41912;51.022;3.664;2022-07-06T02:55:26;7.00;;;3.55;;
56043;SDS011;41912;51.022;3.664;2022-07-06T02:57:52;5.50;;;3.55;;
56043;SDS011;41912;51.022;3.664;2022-07-06T03:00:19;4.40;;;3.28;;
56043;SDS011;41912;51.022;3.664;2022-07-06T03:02:44;6.57;;;2.80;;
56043;SDS011;41912;51.022;3.664;2022-07-06T03:05:10;4.43;;;3.25;;
56043;SDS011;41912;51.022;3.664;2022-07-06T03:07:36;5.95;;;3.53;;
56043;SDS011;41912;51.022;3.664;2022-07-06T03:10:02;5.65;;;3.50;;
56043;SDS011;41912;51.022;3.664;2022-07-06T03:12:28;7.18;;;3.65;;
56043;SDS011;41912;51.022;3.664;2022-07-06T03:14:53;6.50;;;3.33;;
56043;SDS011;41912;51.022;3.664;2022-07-06T03:17:19;6.13;;;3.35;;
56043;SDS011;41912;51.022;3.664;2022-07-06T03:19:46;6.90;;;3.20;;
56043;SDS011;41912;51.022;3.664;2022-07-06T03:22:12;4.30;;;3.28;;
56043;SDS011;41912;51.022;3.664;2022-07-06T03:24:37;6.38;;;3.83;;
56043;SDS011;41912;51.022;3.664;2022-07-06T03:27:03;5.55;;;3.22;;
56043;SDS011;41912;51.022;3.664;2022-07-06T03:29:29;5.43;;;3.53;;
56043;SDS011;41912;51.022;3.664;2022-07-06T03:31:54;6.65;;;3.45;;
56043;SDS011;41912;51.022;3.664;2022-07-06T03:34:20;7.43;;;3.70;;
56043;SDS011;41912;51.022;3.664;2022-07-06T03:36:46;5.57;;;3.38;;
56043;SDS011;41912;51.022;3.664;2022-07-06T03:39:11;3.63;;;3.03;;
56043;SDS011;41912;51.022;3.664;2022-07-06T03:41:37;5.00;;;3.35;;
56043;SDS011;41912;51.022;3.664;2022-07-06T03:44:02;6.78;;;3.42;;
56043;SDS011;41912;51.022;3.664;2022-07-06T03:46:28;7.90;;;3.58;;
56043;SDS011;41912;51.022;3.664;2022-07-06T03:48:54;6.85;;;3.70;;
56043;SDS011;41912;51.022;3.664;2022-07-06T03:51:20;6.47;;;3.65;;
56043;SDS011;41912;51.022;3.664;2022-07-06T03:53:45;5.10;;;3.70;;
56043;SDS011;41912;51.022;3.664;2022-07-06T03:56:11;5.60;;;3.25;;
56043;SDS011;41912;51.022;3.664;2022-07-06T03:58:58;6.90;;;3.45;;
56043;SDS011;41912;51.022;3.664;2022-07-06T04:01:25;6.57;;;3.67;;
56043;SDS011;41912;51.022;3.664;2022-07-06T04:03:51;9.13;;;4.20;;
56043;SDS011;41912;51.022;3.664;2022-07-06T04:06:17;6.20;;;3.55;;
56043;SDS011;41912;51.022;3.664;2022-07-06T04:08:43;8.05;;;3.50;;
56043;SDS011;41912;51.022;3.664;2022-07-06T04:11:08;5.57;;;3.78;;
56043;SDS011;41912;51.022;3.664;2022-07-06T04:13:34;5.22;;;3.60;;
56043;SDS011;41912;51.022;3.664;2022-07-06T04:16:00;7.57;;;3.63;;
56043;SDS011;41912;51.022;3.664;2022-07-06T04:18:25;10.45;;;3.70;;
56043;SDS011;41912;51.022;3.664;2022-07-06T04:20:51;5.95;;;3.80;;
56043;SDS011;41912;51.022;3.664;2022-07-06T04:23:17;7.35;;;3.80;;
56043;SDS011;41912;51.022;3.664;2022-07-06T04:25:42;8.35;;;3.75;;
56043;SDS011;41912;51.022;3.664;2022-07-06T04:28:08;7.30;;;3.60;;
56043;SDS011;41912;51.022;3.664;2022-07-06T04:30:34;7.95;;;4.18;;
56043;SDS011;41912;51.022;3.664;2022-07-06T04:32:59;8.10;;;4.20;;
56043;SDS011;41912;51.022;3.664;2022-07-06T04:35:25;8.13;;;4.13;;
56043;SDS011;41912;51.022;3.664;2022-07-06T04:37:51;9.00;;;4.03;;
56043;SDS011;41912;51.022;3.664;2022-07-06T04:40:16;6.13;;;4.18;;
56043;SDS011;41912;51.022;3.664;2022-07-06T04:42:42;8.13;;;4.00;;
56043;SDS011;41912;51.022;3.664;2022-07-06T04:45:08;9.68;;;4.47;;
56043;SDS011;41912;51.022;3.664;2022-07-06T04:47:35;8.35;;;4.13;;
56043;SDS011;41912;51.022;3.664;2022-07-06T04:50:01;6.50;;;3.90;;
56043;SDS011;41912;51.022;3.664;2022-07-06T04:52:27;5.43;;;3.70;;
56043;SDS011;41912;51.022;3.664;2022-07-06T04:54:54;7.07;;;4.20;;
56043;SDS011;41912;51.022;3.664;2022-07-06T04:57:23;7.75;;;4.55;;
56043;SDS011;41912;51.022;3.664;2022-07-06T05:00:06;9.73;;;4.22;;
56043;SDS011;41912;51.022;3.664;2022-07-06T05:02:32;8.32;;;5.15;;
56043;SDS011;41912;51.022;3.664;2022-07-06T05:04:58;5.75;;;4.85;;
56043;SDS011;41912;51.022;3.664;2022-07-06T05:07:24;9.98;;;5.28;;
56043;SDS011;41912;51.022;3.664;2022-07-06T05:09:54;8.35;;;5.05;;
56043;SDS011;41912;51.022;3.664;2022-07-06T05:12:20;6.75;;;5.20;;
56043;SDS011;41912;51.022;3.664;2022-07-06T05:14:45;10.55;;;6.05;;
56043;SDS011;41912;51.022;3.664;2022-07-06T05:17:11;9.18;;;6.03;;
56043;SDS011;41912;51.022;3.664;2022-07-06T05:19:37;9.32;;;6.03;;
56043;SDS011;41912;51.022;3.664;2022-07-06T05:22:02;8.32;;;5.75;;
56043;SDS011;41912;51.022;3.664;2022-07-06T05:24:28;7.18;;;5.60;;
56043;SDS011;41912;51.022;3.664;2022-07-06T05:26:54;10.73;;;6.28;;
56043;SDS011;41912;51.022;3.664;2022-07-06T05:29:19;16.40;;;6.38;;
56043;SDS011;41912;51.022;3.664;2022-07-06T05:31:45;13.10;;;5.90;;
56043;SDS011;41912;51.022;3.664;2022-07-06T05:34:10;11.77;;;5.55;;
56043;SDS011;41912;51.022;3.664;2022-07-06T05:36:36;16.42;;;6.05;;
56043;SDS011;41912;51.022;3.664;2022-07-06T05:39:02;12.25;;;7.53;;
56043;SDS011;41912;51.022;3.664;2022-07-06T05:41:27;10.60;;;6.40;;
56043;SDS011;41912;51.022;3.664;2022-07-06T05:43:53;18.48;;;6.13;;
56043;SDS011;41912;51.022;3.664;2022-07-06T05:46:19;10.27;;;6.25;;
56043;SDS011;41912;51.022;3.664;2022-07-06T05:48:44;9.85;;;6.45;;
56043;SDS011;41912;51.022;3.664;2022-07-06T05:51:29;16.17;;;6.15;;
56043;SDS011;41912;51.022;3.664;2022-07-06T05:53:54;12.10;;;6.53;;
56043;SDS011;41912;51.022;3.664;2022-07-06T05:56:20;9.90;;;5.95;;
56043;SDS011;41912;51.022;3.664;2022-07-06T05:58:45;11.68;;;6.40;;
56043;SDS011;41912;51.022;3.664;2022-07-06T06:01:11;9.63;;;6.60;;
56043;SDS011;41912;51.022;3.664;2022-07-06T06:03:37;8.73;;;6.30;;
56043;SDS011;41912;51.022;3.664;2022-07-06T06:06:02;16.88;;;6.32;;
56043;SDS011;41912;51.022;3.664;2022-07-06T06:08:28;11.23;;;6.57;;
56043;SDS011;41912;51.022;3.664;2022-07-06T06:10:54;13.55;;;8.00;;
56043;SDS011;41912;51.022;3.664;2022-07-06T06:13:19;13.73;;;7.15;;
56043;SDS011;41912;51.022;3.664;2022-07-06T06:15:45;14.85;;;7.78;;
56043;SDS011;41912;51.022;3.664;2022-07-06T06:18:11;13.13;;;7.68;;
56043;SDS011;41912;51.022;3.664;2022-07-06T06:20:37;14.40;;;6.60;;
56043;SDS011;41912;51.022;3.664;2022-07-06T06:23:02;15.35;;;7.47;;
56043;SDS011;41912;51.022;3.664;2022-07-06T06:25:32;13.50;;;7.35;;
56043;SDS011;41912;51.022;3.664;2022-07-06T06:27:59;11.85;;;6.45;;
56043;SDS011;41912;51.022;3.664;2022-07-06T06:30:25;10.90;;;6.82;;
56043;SDS011;41912;51.022;3.664;2022-07-06T06:32:51;11.45;;;6.97;;
56043;SDS011;41912;51.022;3.664;2022-07-06T06:35:28;11.02;;;6.20;;
56043;SDS011;41912;51.022;3.664;2022-07-06T06:37:54;18.23;;;6.38;;
56043;SDS011;41912;51.022;3.664;2022-07-06T06:40:20;12.40;;;6.53;;
56043;SDS011;41912;51.022;3.664;2022-07-06T06:42:45;10.32;;;6.28;;
56043;SDS011;41912;51.022;3.664;2022-07-06T06:45:11;10.30;;;6.32;;
56043;SDS011;41912;51.022;3.664;2022-07-06T06:47:37;10.73;;;6.13;;
56043;SDS011;41912;51.022;3.664;2022-07-06T06:50:02;15.32;;;6.30;;
56043;SDS011;41912;51.022;3.664;2022-07-06T06:52:28;13.13;;;6.25;;
56043;SDS011;41912;51.022;3.664;2022-07-06T06:54:54;12.07;;;6.05;;
56043;SDS011;41912;51.022;3.664;2022-07-06T06:57:19;13.55;;;6.43;;
56043;SDS011;41912;51.022;3.664;2022-07-06T06:59:45;8.82;;;5.68;;
56043;SDS011;41912;51.022;3.664;2022-07-06T07:02:11;9.73;;;5.63;;
56043;SDS011;41912;51.022;3.664;2022-07-06T07:04:36;10.23;;;5.43;;
56043;SDS011;41912;51.022;3.664;2022-07-06T07:07:02;14.32;;;4.72;;
56043;SDS011;41912;51.022;3.664;2022-07-06T07:09:28;9.73;;;4.25;;
56043;SDS011;41912;51.022;3.664;2022-07-06T07:11:53;10.00;;;4.28;;
56043;SDS011;41912;51.022;3.664;2022-07-06T07:14:19;12.73;;;4.65;;
56043;SDS011;41912;51.022;3.664;2022-07-06T07:16:45;7.82;;;4.20;;
56043;SDS011;41912;51.022;3.664;2022-07-06T07:19:11;8.63;;;4.18;;
56043;SDS011;41912;51.022;3.664;2022-07-06T07:21:37;5.00;;;3.47;;
56043;SDS011;41912;51.022;3.664;2022-07-06T07:24:02;8.00;;;3.40;;
56043;SDS011;41912;51.022;3.664;2022-07-06T07:26:28;6.15;;;2.60;;
56043;SDS011;41912;51.022;3.664;2022-07-06T07:28:54;6.55;;;2.50;;
56043;SDS011;41912;51.022;3.664;2022-07-06T07:31:19;8.07;;;3.10;;
56043;SDS011;41912;51.022;3.664;2022-07-06T07:33:45;5.00;;;2.63;;
56043;SDS011;41912;51.022;3.664;2022-07-06T07:36:10;8.38;;;2.10;;
56043;SDS011;41912;51.022;3.664;2022-07-06T07:38:36;7.47;;;2.60;;
56043;SDS011;41912;51.022;3.664;2022-07-06T07:41:02;5.60;;;1.83;;
56043;SDS011;41912;51.022;3.664;2022-07-06T07:43:27;3.25;;;1.60;;
56043;SDS011;41912;51.022;3.664;2022-07-06T07:45:53;5.30;;;2.05;;
56043;SDS011;41912;51.022;3.664;2022-07-06T07:48:19;4.22;;;2.00;;
56043;SDS011;41912;51.022;3.664;2022-07-06T07:50:45;3.28;;;1.95;;
56043;SDS011;41912;51.022;3.664;2022-07-06T07:53:10;8.50;;;2.20;;
56043;SDS011;41912;51.022;3.664;2022-07-06T07:55:36;4.75;;;2.42;;
56043;SDS011;41912;51.022;3.664;2022-07-06T07:58:02;6.88;;;1.90;;
56043;SDS011;41912;51.022;3.664;2022-07-06T08:00:27;5.15;;;2.22;;
56043;SDS011;41912;51.022;3.664;2022-07-06T08:02:53;5.32;;;2.30;;
56043;SDS011;41912;51.022;3.664;2022-07-06T08:05:19;7.30;;;2.17;;
56043;SDS011;41912;51.022;3.664;2022-07-06T08:07:45;7.82;;;2.35;;
56043;SDS011;41912;51.022;3.664;2022-07-06T08:10:11;7.80;;;2.40;;
56043;SDS011;41912;51.022;3.664;2022-07-06T08:12:37;9.63;;;3.28;;
56043;SDS011;41912;51.022;3.664;2022-07-06T08:15:03;5.15;;;2.33;;
56043;SDS011;41912;51.022;3.664;2022-07-06T08:17:30;7.75;;;2.38;;
56043;SDS011;41912;51.022;3.664;2022-07-06T08:19:56;7.15;;;1.98;;
56043;SDS011;41912;51.022;3.664;2022-07-06T08:22:22;5.68;;;1.92;;
56043;SDS011;41912;51.022;3.664;2022-07-06T08:24:48;6.18;;;2.30;;
56043;SDS011;41912;51.022;3.664;2022-07-06T08:27:14;7.80;;;2.67;;
56043;SDS011;41912;51.022;3.664;2022-07-06T08:29:39;7.18;;;2.80;;
56043;SDS011;41912;51.022;3.664;2022-07-06T08:32:05;10.50;;;3.25;;
56043;SDS011;41912;51.022;3.664;2022-07-06T08:34:31;6.25;;;2.80;;
56043;SDS011;41912;51.022;3.664;2022-07-06T08:36:57;8.07;;;3.53;;
56043;SDS011;41912;51.022;3.664;2022-07-06T08:39:22;6.53;;;2.28;;
56043;SDS011;41912;51.022;3.664;2022-07-06T08:41:48;8.85;;;2.47;;
56043;SDS011;41912;51.022;3.664;2022-07-06T08:44:16;7.63;;;2.35;;
56043;SDS011;41912;51.022;3.664;2022-07-06T08:46:43;6.10;;;2.70;;
56043;SDS011;41912;51.022;3.664;2022-07-06T08:49:12;9.27;;;2.47;;
56043;SDS011;41912;51.022;3.664;2022-07-06T08:51:40;6.85;;;2.40;;
56043;SDS011;41912;51.022;3.664;2022-07-06T08:54:06;11.43;;;2.38;;
56043;SDS011;41912;51.022;3.664;2022-07-06T08:56:32;4.78;;;2.05;;
56043;SDS011;41912;51.022;3.664;2022-07-06T08:58:58;5.57;;;1.90;;
56043;SDS011;41912;51.022;3.664;2022-07-06T09:01:25;7.57;;;3.00;;
56043;SDS011;41912;51.022;3.664;2022-07-06T09:03:50;4.10;;;2.10;;
56043;SDS011;41912;51.022;3.664;2022-07-06T09:06:19;9.32;;;2.80;;
56043;SDS011;41912;51.022;3.664;2022-07-06T09:08:52;6.85;;;2.00;;
56043;SDS011;41912;51.022;3.664;2022-07-06T09:11:21;8.15;;;2.38;;
56043;SDS011;41912;51.022;3.664;2022-07-06T09:13:47;5.78;;;2.20;;
56043;SDS011;41912;51.022;3.664;2022-07-06T09:16:14;5.70;;;2.13;;
56043;SDS011;41912;51.022;3.664;2022-07-06T09:18:43;4.97;;;1.85;;
56043;SDS011;41912;51.022;3.664;2022-07-06T09:21:10;10.40;;;2.78;;
56043;SDS011;41912;51.022;3.664;2022-07-06T09:23:36;6.35;;;2.45;;
56043;SDS011;41912;51.022;3.664;2022-07-06T09:26:02;6.75;;;2.20;;
56043;SDS011;41912;51.022;3.664;2022-07-06T09:28:40;11.18;;;2.40;;
56043;SDS011;41912;51.022;3.664;2022-07-06T09:31:06;8.80;;;2.47;;
56043;SDS011;41912;51.022;3.664;2022-07-06T09:33:32;9.07;;;2.42;;
56043;SDS011;41912;51.022;3.664;2022-07-06T09:35:59;6.88;;;2.55;;
56043;SDS011;41912;51.022;3.664;2022-07-06T09:38:27;5.82;;;2.47;;
56043;SDS011;41912;51.022;3.664;2022-07-06T09:40:53;6.72;;;2.20;;
56043;SDS011;41912;51.022;3.664;2022-07-06T09:43:19;6.80;;;2.20;;
56043;SDS011;41912;51.022;3.664;2022-07-06T09:45:51;7.60;;;1.98;;
56043;SDS011;41912;51.022;3.664;2022-07-06T09:50:49;11.82;;;2.30;;
56043;SDS011;41912;51.022;3.664;2022-07-06T09:53:23;11.65;;;2.38;;
56043;SDS011;41912;51.022;3.664;2022-07-06T09:55:50;5.78;;;2.28;;
56043;SDS011;41912;51.022;3.664;2022-07-06T09:58:17;8.77;;;2.33;;
56043;SDS011;41912;51.022;3.664;2022-07-06T10:00:44;6.25;;;2.13;;
56043;SDS011;41912;51.022;3.664;2022-07-06T10:03:11;5.78;;;2.50;;
56043;SDS011;41912;51.022;3.664;2022-07-06T10:05:38;9.30;;;2.22;;
56043;SDS011;41912;51.022;3.664;2022-07-06T10:08:05;10.55;;;2.13;;
56043;SDS011;41912;51.022;3.664;2022-07-06T10:10:34;6.85;;;2.47;;
56043;SDS011;41912;51.022;3.664;2022-07-06T10:13:01;6.45;;;2.38;;
56043;SDS011;41912;51.022;3.664;2022-07-06T10:15:28;9.70;;;2.45;;
56043;SDS011;41912;51.022;3.664;2022-07-06T10:17:58;4.53;;;2.03;;
56043;SDS011;41912;51.022;3.664;2022-07-06T10:20:27;9.05;;;2.10;;
56043;SDS011;41912;51.022;3.664;2022-07-06T10:22:56;7.65;;;1.90;;
56043;SDS011;41912;51.022;3.664;2022-07-06T10:25:25;7.30;;;1.80;;
56043;SDS011;41912;51.022;3.664;2022-07-06T10:27:51;5.05;;;2.20;;
56043;SDS011;41912;51.022;3.664;2022-07-06T10:30:18;5.95;;;2.42;;
56043;SDS011;41912;51.022;3.664;2022-07-06T10:32:44;7.15;;;2.65;;
56043;SDS011;41912;51.022;3.664;2022-07-06T10:35:13;7.07;;;2.20;;
56043;SDS011;41912;51.022;3.664;2022-07-06T10:37:40;10.23;;;3.13;;
56043;SDS011;41912;51.022;3.664;2022-07-06T10:40:06;7.65;;;2.55;;
56043;SDS011;41912;51.022;3.664;2022-07-06T10:50:36;8.23;;;2.35;;
56043;SDS011;41912;51.022;3.664;2022-07-06T10:53:16;3.83;;;2.08;;
56043;SDS011;41912;51.022;3.664;2022-07-06T10:55:46;20.50;;;3.15;;
56043;SDS011;41912;51.022;3.664;2022-07-06T10:58:15;8.77;;;2.22;;
56043;SDS011;41912;51.022;3.664;2022-07-06T11:00:59;10.52;;;2.40;;
56043;SDS011;41912;51.022;3.664;2022-07-06T11:03:38;11.52;;;3.28;;
56043;SDS011;41912;51.022;3.664;2022-07-06T11:11:56;7.38;;;2.50;;
56043;SDS011;41912;51.022;3.664;2022-07-06T11:19:18;5.25;;;2.28;;
56043;SDS011;41912;51.022;3.664;2022-07-06T11:21:55;6.95;;;2.42;;
56043;SDS011;41912;51.022;3.664;2022-07-06T11:24:26;10.20;;;2.85;;
56043;SDS011;41912;51.022;3.664;2022-07-06T11:26:54;6.93;;;2.70;;
56043;SDS011;41912;51.022;3.664;2022-07-06T11:29:22;8.35;;;3.00;;
56043;SDS011;41912;51.022;3.664;2022-07-06T11:31:49;9.15;;;2.60;;
56043;SDS011;41912;51.022;3.664;2022-07-06T11:34:28;5.25;;;2.78;;
56043;SDS011;41912;51.022;3.664;2022-07-06T11:36:56;8.80;;;2.92;;
56043;SDS011;41912;51.022;3.664;2022-07-06T11:39:27;5.75;;;2.90;;
56043;SDS011;41912;51.022;3.664;2022-07-06T11:41:57;7.45;;;2.83;;
56043;SDS011;41912;51.022;3.664;2022-07-06T11:44:25;6.70;;;2.55;;
56043;SDS011;41912;51.022;3.664;2022-07-06T11:46:51;6.93;;;2.35;;
56043;SDS011;41912;51.022;3.664;2022-07-06T11:49:17;8.40;;;2.17;;
56043;SDS011;41912;51.022;3.664;2022-07-06T11:51:44;8.63;;;1.67;;
56043;SDS011;41912;51.022;3.664;2022-07-06T11:54:17;6.18;;;1.73;;
56043;SDS011;41912;51.022;3.664;2022-07-06T11:56:48;8.27;;;1.80;;
56043;SDS011;41912;51.022;3.664;2022-07-06T11:59:25;6.05;;;2.22;;
56043;SDS011;41912;51.022;3.664;2022-07-06T12:04:34;5.68;;;2.03;;
56043;SDS011;41912;51.022;3.664;2022-07-06T12:07:02;7.13;;;2.33;;
56043;SDS011;41912;51.022;3.664;2022-07-06T12:09:33;8.70;;;2.00;;
56043;SDS011;41912;51.022;3.664;2022-07-06T12:12:02;4.15;;;1.92;;
56043;SDS011;41912;51.022;3.664;2022-07-06T12:14:32;5.00;;;1.92;;
56043;SDS011;41912;51.022;3.664;2022-07-06T12:17:03;5.15;;;1.63;;
56043;SDS011;41912;51.022;3.664;2022-07-06T12:19:30;9.80;;;3.10;;
56043;SDS011;41912;51.022;3.664;2022-07-06T12:21:56;5.03;;;1.90;;
56043;SDS011;41912;51.022;3.664;2022-07-06T12:24:23;5.45;;;2.00;;
56043;SDS011;41912;51.022;3.664;2022-07-06T12:26:52;7.57;;;2.35;;
56043;SDS011;41912;51.022;3.664;2022-07-06T12:29:18;10.10;;;2.22;;
56043;SDS011;41912;51.022;3.664;2022-07-06T12:34:31;7.53;;;2.75;;
56043;SDS011;41912;51.022;3.664;2022-07-06T12:37:03;4.75;;;1.73;;
56043;SDS011;41912;51.022;3.664;2022-07-06T12:39:32;7.75;;;2.65;;
56043;SDS011;41912;51.022;3.664;2022-07-06T12:42:05;6.65;;;2.22;;
56043;SDS011;41912;51.022;3.664;2022-07-06T12:44:31;10.90;;;1.77;;
56043;SDS011;41912;51.022;3.664;2022-07-06T12:47:03;6.93;;;1.83;;
56043;SDS011;41912;51.022;3.664;2022-07-06T12:49:31;8.32;;;3.05;;
56043;SDS011;41912;51.022;3.664;2022-07-06T12:51:59;9.23;;;2.67;;
56043;SDS011;41912;51.022;3.664;2022-07-06T12:54:46;8.73;;;2.92;;
56043;SDS011;41912;51.022;3.664;2022-07-06T12:57:17;6.80;;;3.30;;
56043;SDS011;41912;51.022;3.664;2022-07-06T12:59:45;11.65;;;3.60;;
56043;SDS011;41912;51.022;3.664;2022-07-06T13:02:18;13.82;;;3.40;;
56043;SDS011;41912;51.022;3.664;2022-07-06T13:04:53;9.27;;;3.75;;
56043;SDS011;41912;51.022;3.664;2022-07-06T13:07:21;12.07;;;2.80;;
56043;SDS011;41912;51.022;3.664;2022-07-06T13:09:46;7.63;;;3.03;;
56043;SDS011;41912;51.022;3.664;2022-07-06T13:12:12;8.65;;;3.33;;
56043;SDS011;41912;51.022;3.664;2022-07-06T13:14:38;7.93;;;3.08;;
56043;SDS011;41912;51.022;3.664;2022-07-06T13:17:03;10.93;;;3.38;;
56043;SDS011;41912;51.022;3.664;2022-07-06T13:19:29;7.10;;;3.40;;
56043;SDS011;41912;51.022;3.664;2022-07-06T13:21:55;10.40;;;3.10;;
56043;SDS011;41912;51.022;3.664;2022-07-06T13:24:20;8.63;;;2.97;;
56043;SDS011;41912;51.022;3.664;2022-07-06T13:26:46;7.75;;;3.90;;
56043;SDS011;41912;51.022;3.664;2022-07-06T13:29:12;9.90;;;4.20;;
56043;SDS011;41912;51.022;3.664;2022-07-06T13:31:38;6.65;;;3.10;;
56043;SDS011;41912;51.022;3.664;2022-07-06T13:34:04;11.65;;;3.33;;
56043;SDS011;41912;51.022;3.664;2022-07-06T13:36:31;9.35;;;3.47;;
56043;SDS011;41912;51.022;3.664;2022-07-06T13:38:57;9.63;;;3.80;;
56043;SDS011;41912;51.022;3.664;2022-07-06T13:41:22;9.48;;;3.45;;
56043;SDS011;41912;51.022;3.664;2022-07-06T13:43:48;7.80;;;3.42;;
56043;SDS011;41912;51.022;3.664;2022-07-06T13:46:14;10.93;;;3.13;;
56043;SDS011;41912;51.022;3.664;2022-07-06T13:48:41;6.93;;;2.80;;
56043;SDS011;41912;51.022;3.664;2022-07-06T13:51:07;8.45;;;3.38;;
56043;SDS011;41912;51.022;3.664;2022-07-06T13:53:33;10.32;;;4.13;;
56043;SDS011;41912;51.022;3.664;2022-07-06T13:55:59;8.60;;;3.13;;
56043;SDS011;41912;51.022;3.664;2022-07-06T13:58:25;8.20;;;3.15;;
56043;SDS011;41912;51.022;3.664;2022-07-06T14:00:51;5.57;;;3.10;;
56043;SDS011;41912;51.022;3.664;2022-07-06T14:03:16;9.05;;;3.08;;
56043;SDS011;41912;51.022;3.664;2022-07-06T14:05:42;8.30;;;2.90;;
56043;SDS011;41912;51.022;3.664;2022-07-06T14:08:08;5.28;;;3.13;;
56043;SDS011;41912;51.022;3.664;2022-07-06T14:10:34;5.30;;;2.67;;
56043;SDS011;41912;51.022;3.664;2022-07-06T14:12:59;5.38;;;2.40;;
56043;SDS011;41912;51.022;3.664;2022-07-06T14:15:25;6.38;;;2.30;;
56043;SDS011;41912;51.022;3.664;2022-07-06T14:17:51;6.80;;;2.05;;
56043;SDS011;41912;51.022;3.664;2022-07-06T14:20:17;8.15;;;2.30;;
56043;SDS011;41912;51.022;3.664;2022-07-06T14:22:43;3.75;;;1.92;;
56043;SDS011;41912;51.022;3.664;2022-07-06T14:25:09;8.10;;;2.17;;
56043;SDS011;41912;51.022;3.664;2022-07-06T14:27:35;7.55;;;2.38;;
56043;SDS011;41912;51.022;3.664;2022-07-06T14:30:02;8.77;;;2.65;;
56043;SDS011;41912;51.022;3.664;2022-07-06T14:32:28;8.60;;;2.60;;
56043;SDS011;41912;51.022;3.664;2022-07-06T14:34:54;13.13;;;2.80;;
56043;SDS011;41912;51.022;3.664;2022-07-06T14:37:19;7.35;;;2.72;;
56043;SDS011;41912;51.022;3.664;2022-07-06T14:39:45;6.20;;;2.53;;
56043;SDS011;41912;51.022;3.664;2022-07-06T14:42:11;8.13;;;2.72;;
56043;SDS011;41912;51.022;3.664;2022-07-06T14:44:37;9.20;;;2.42;;
56043;SDS011;41912;51.022;3.664;2022-07-06T14:47:03;8.25;;;2.47;;
56043;SDS011;41912;51.022;3.664;2022-07-06T14:49:29;6.43;;;2.47;;
56043;SDS011;41912;51.022;3.664;2022-07-06T14:51:55;6.57;;;2.78;;
56043;SDS011;41912;51.022;3.664;2022-07-06T14:54:22;5.68;;;2.55;;
56043;SDS011;41912;51.022;3.664;2022-07-06T14:56:48;7.25;;;2.60;;
56043;SDS011;41912;51.022;3.664;2022-07-06T14:59:14;9.48;;;1.90;;
56043;SDS011;41912;51.022;3.664;2022-07-06T15:01:40;4.50;;;2.35;;
56043;SDS011;41912;51.022;3.664;2022-07-06T15:04:06;9.82;;;2.67;;
56043;SDS011;41912;51.022;3.664;2022-07-06T15:06:32;9.90;;;2.53;;
56043;SDS011;41912;51.022;3.664;2022-07-06T15:08:57;6.95;;;1.67;;
56043;SDS011;41912;51.022;3.664;2022-07-06T15:11:25;6.35;;;1.77;;